createdAt,value
2024-02-02T00:00:52.362Z,101512.25
2024-02-02T00:05:56.732Z,101518.22
2024-02-02T00:11:00.559Z,101517.03
2024-02-02T00:16:04.036Z,101521.56
2024-02-02T00:21:08.369Z,101518.22
2024-02-02T00:26:11.311Z,101536.78
2024-02-02T00:31:14.212Z,101521.50
2024-02-02T00:36:19.018Z,101527.03
2024-02-02T00:41:22.006Z,101523.09
2024-02-02T00:46:24.886Z,101528.63
2024-02-02T00:51:29.269Z,101516.44
2024-02-02T00:56:32.245Z,101510.66
2024-02-02T01:01:35.159Z,101513.25
2024-02-02T01:06:39.796Z,101505.53
2024-02-02T01:11:45.980Z,101499.47
2024-02-02T01:16:49.032Z,101497.72
2024-02-02T01:21:53.343Z,101504.59
2024-02-02T01:26:56.296Z,101493.34
2024-02-02T01:31:59.179Z,101498.47
2024-02-02T01:37:03.494Z,101486.53
2024-02-02T01:42:06.630Z,101490.28
2024-02-02T01:47:09.611Z,101487.97
2024-02-02T01:52:14.067Z,101485.34
2024-02-02T01:57:17.067Z,101488.13
2024-02-02T02:02:19.955Z,101496.31
2024-02-02T02:07:24.249Z,101495.78
2024-02-02T02:12:27.322Z,101493.97
2024-02-02T02:17:30.356Z,101488.56
2024-02-02T02:22:34.597Z,101495.38
2024-02-02T02:27:37.827Z,101506.72
2024-02-02T02:32:40.958Z,101506.34
2024-02-02T02:37:45.295Z,101487.47
2024-02-02T02:42:48.596Z,101492.69
2024-02-02T02:47:51.589Z,101482.44
2024-02-02T02:52:55.923Z,101483.78
2024-02-02T02:57:58.902Z,101453.31
2024-02-02T03:03:02.926Z,101448.03
2024-02-02T03:08:07.830Z,101456.06
2024-02-02T03:13:10.906Z,101449.28
2024-02-02T03:18:15.544Z,101453.16
2024-02-02T03:23:20.015Z,101458.88
2024-02-02T03:28:23.059Z,101456.94
2024-02-02T03:33:26.006Z,101459.31
2024-02-02T03:38:30.378Z,101472.13
2024-02-02T03:43:33.267Z,101485.41
2024-02-02T03:48:36.281Z,101472.84
2024-02-02T03:53:40.790Z,101469.22
2024-02-02T03:58:43.717Z,101477.03
2024-02-02T04:03:46.872Z,101475.03
2024-02-02T04:08:51.154Z,101465.06
2024-02-02T04:13:54.053Z,101471.50
2024-02-02T04:18:57.119Z,101480.34
2024-02-02T04:24:01.586Z,101479.81
2024-02-02T04:29:06.035Z,101470.41
2024-02-02T04:34:09.024Z,101481.81
2024-02-02T04:39:13.625Z,101480.56
2024-02-02T04:44:16.536Z,101452.75
2024-02-02T04:49:19.679Z,101461.66
2024-02-02T04:54:24.141Z,101461.16
2024-02-02T04:59:27.117Z,101463.06
2024-02-02T05:04:30.104Z,101450.84
2024-02-02T05:09:34.543Z,101448.91
2024-02-02T05:14:37.490Z,101449.63
2024-02-02T05:19:40.375Z,101449.56
2024-02-02T05:24:46.030Z,101447.75
2024-02-02T05:29:50.216Z,101449.78
2024-02-02T05:34:53.449Z,101441.94
2024-02-02T05:39:57.896Z,101437.09
2024-02-02T05:45:00.832Z,101437.03
2024-02-02T05:50:03.949Z,101437.47
2024-02-02T05:55:09.130Z,101424.25
2024-02-02T06:00:13.070Z,101407.53
2024-02-02T06:05:16.147Z,101418.78
2024-02-02T06:10:20.389Z,101404.41
2024-02-02T06:15:23.301Z,101410.97
2024-02-02T06:20:26.276Z,101398.03
2024-02-02T06:25:30.594Z,101398.44
2024-02-02T06:30:33.604Z,101396.59
2024-02-02T06:35:36.532Z,101397.06
2024-02-02T06:40:41.105Z,101413.16
2024-02-02T06:45:48.704Z,101412.06
2024-02-02T06:50:52.097Z,101424.31
2024-02-02T06:55:56.516Z,101424.50
2024-02-02T07:00:59.552Z,101411.19
2024-02-02T07:06:03.537Z,101406.66
2024-02-02T07:11:42.123Z,101392.56
2024-02-02T07:16:45.138Z,101405.97
2024-02-02T07:21:48.098Z,101407.59
2024-02-02T07:26:52.395Z,101413.56
2024-02-02T07:31:55.934Z,101408.69
2024-02-02T07:36:59.096Z,101405.72
2024-02-02T07:42:04.620Z,101414.56
2024-02-02T07:47:07.711Z,101408.56
2024-02-02T07:52:10.655Z,101407.56
2024-02-02T07:57:15.361Z,101403.00
2024-02-02T08:02:18.505Z,101407.09
2024-02-02T08:07:21.684Z,101399.28
2024-02-02T08:12:26.110Z,101395.94
2024-02-02T08:17:29.148Z,101378.50
2024-02-02T08:22:32.090Z,101384.38
2024-02-02T08:27:36.536Z,101387.56
2024-02-02T08:32:40.118Z,101385.59
2024-02-02T08:37:44.776Z,101383.84
2024-02-02T08:42:49.424Z,101368.94
2024-02-02T08:47:52.421Z,101372.94
2024-02-02T08:53:00.618Z,101366.06
2024-02-02T08:58:10.157Z,101352.25
2024-02-02T09:03:27.764Z,101349.75
2024-02-02T09:08:36.427Z,101321.72
2024-02-02T09:13:42.502Z,101317.06
2024-02-02T09:18:46.904Z,101320.81
2024-02-02T09:23:51.332Z,101304.13
2024-02-02T09:28:56.676Z,101283.19
2024-02-02T09:34:00.317Z,101260.66
2024-02-02T09:39:07.587Z,101270.69
2024-02-02T09:44:28.345Z,101284.34
2024-02-02T09:49:39.333Z,101284.69
2024-02-02T09:54:46.543Z,101278.78
2024-02-02T09:59:59.935Z,101258.00
2024-02-02T10:05:11.988Z,101262.19
2024-02-02T10:10:34.815Z,101258.72
2024-02-02T10:15:48.746Z,101242.53
2024-02-02T10:20:55.657Z,101224.97
2024-02-02T10:26:20.579Z,101209.63
2024-02-02T10:31:36.533Z,101185.25
2024-02-02T10:36:49.904Z,101186.25
2024-02-02T10:42:11.830Z,101181.50
2024-02-02T10:47:28.977Z,101184.66
2024-02-02T10:52:39.627Z,101177.06
2024-02-02T10:57:47.838Z,101178.91
2024-02-02T11:03:03.304Z,101156.09
2024-02-02T11:08:09.144Z,101142.72
2024-02-02T11:13:17.913Z,101118.97
2024-02-02T11:18:40.448Z,101115.41
2024-02-02T11:23:48.237Z,101116.69
2024-02-02T11:28:59.629Z,101107.97
2024-02-02T11:34:12.311Z,101103.16
2024-02-02T11:39:24.974Z,101097.63
2024-02-02T11:44:28.148Z,101079.84
2024-02-02T11:49:36.075Z,101074.78
2024-02-02T11:54:44.971Z,101066.88
2024-02-02T11:59:53.403Z,101062.41
2024-02-02T12:05:02.449Z,101040.91
2024-02-02T12:10:09.251Z,101036.13
2024-02-02T12:15:12.541Z,101035.41
2024-02-02T12:20:18.928Z,101019.59
2024-02-02T12:25:22.913Z,101020.19
2024-02-02T12:30:25.905Z,101001.19
2024-02-02T12:35:30.284Z,101021.38
2024-02-02T12:40:33.599Z,101010.94
2024-02-02T12:45:37.800Z,101003.06
2024-02-02T12:50:44.659Z,101001.88
2024-02-02T12:55:47.693Z,101022.44
2024-02-02T13:00:50.912Z,100994.00
2024-02-02T13:05:57.227Z,100980.84
2024-02-02T13:11:00.988Z,100972.59
2024-02-02T13:16:07.057Z,100985.00
2024-02-02T13:21:28.319Z,100960.03
2024-02-02T13:26:40.564Z,100950.72
2024-02-02T13:31:43.482Z,100943.09
2024-02-02T13:36:49.123Z,100925.53
2024-02-02T13:41:53.296Z,100929.34
2024-02-02T13:46:58.566Z,100926.75
2024-02-02T13:52:07.217Z,100897.78
2024-02-02T13:57:12.506Z,100881.66
2024-02-02T14:02:15.456Z,100892.63
2024-02-02T14:07:20.353Z,100891.38
2024-02-02T14:12:23.428Z,100901.63
2024-02-02T14:17:26.422Z,100885.19
2024-02-02T14:22:30.807Z,100885.66
2024-02-02T14:27:35.174Z,100890.25
2024-02-02T14:32:38.471Z,100870.06
2024-02-02T14:37:42.782Z,100860.97
2024-02-02T14:42:46.927Z,100850.28
2024-02-02T14:47:50.210Z,100846.94
2024-02-02T14:52:55.045Z,100837.56
2024-02-02T14:58:00.446Z,100821.66
2024-02-02T15:03:05.012Z,100821.16
2024-02-02T15:08:10.823Z,100804.53
2024-02-02T15:13:17.057Z,100814.59
2024-02-02T15:18:21.539Z,100795.31
2024-02-02T15:23:26.630Z,100788.06
2024-02-02T15:28:29.640Z,100790.72
2024-02-02T15:33:32.625Z,100771.13
2024-02-02T15:38:38.695Z,100769.44
2024-02-02T15:43:43.207Z,100776.28
2024-02-02T15:48:47.814Z,100776.09
2024-02-02T15:53:52.292Z,100769.41
2024-02-02T15:58:55.190Z,100766.44
2024-02-02T16:03:59.275Z,100768.22
2024-02-02T16:09:04.342Z,100763.88
2024-02-02T16:14:07.308Z,100766.75
2024-02-02T16:19:11.037Z,100760.09
2024-02-02T16:24:15.452Z,100749.25
2024-02-02T16:29:18.588Z,100743.19
2024-02-02T16:34:22.145Z,100737.97
2024-02-02T16:39:29.885Z,100734.38
2024-02-02T16:44:32.904Z,100718.84
2024-02-02T16:49:37.485Z,100715.84
2024-02-02T16:54:41.904Z,100702.38
2024-02-02T16:59:44.884Z,100705.84
2024-02-02T17:04:51.012Z,100717.03
2024-02-02T17:09:55.461Z,100698.56
2024-02-02T17:14:58.832Z,100691.09
2024-02-02T17:20:05.730Z,100693.16
2024-02-02T17:25:12.582Z,100716.00
2024-02-02T17:30:17.867Z,100738.59
2024-02-02T17:35:22.286Z,100758.97
2024-02-02T17:40:29.291Z,100764.47
2024-02-02T17:45:32.242Z,100765.88
2024-02-02T17:50:35.318Z,100776.13
2024-02-02T17:55:39.698Z,100785.13
2024-02-02T18:00:42.658Z,100782.41
2024-02-02T18:05:45.584Z,100768.63
2024-02-02T18:10:49.897Z,100763.41
2024-02-02T18:15:53.556Z,100769.72
2024-02-02T18:20:57.146Z,100773.16
2024-02-02T18:26:02.307Z,100771.50
2024-02-02T18:31:05.629Z,100774.47
2024-02-02T18:36:08.942Z,100782.06
2024-02-02T18:41:13.217Z,100787.19
2024-02-02T18:46:16.179Z,100791.69
2024-02-02T18:51:19.474Z,100782.16
2024-02-02T18:56:23.830Z,100787.25
2024-02-02T19:01:30.661Z,100786.28
2024-02-02T19:06:38.308Z,100782.97
2024-02-02T19:11:42.626Z,100768.06
2024-02-02T19:16:45.495Z,100782.53
2024-02-02T19:21:48.699Z,100801.00
2024-02-02T19:26:55.192Z,100797.91
2024-02-02T19:31:58.125Z,100806.28
2024-02-02T19:37:02.218Z,100801.88
2024-02-02T19:42:06.830Z,100811.00
2024-02-02T19:47:10.072Z,100827.75
2024-02-02T19:52:12.966Z,100820.44
2024-02-02T19:57:17.389Z,100818.88
2024-02-02T20:02:25.845Z,100827.69
2024-02-02T20:07:28.855Z,100827.06
2024-02-02T20:12:33.543Z,100825.88
2024-02-02T20:17:36.546Z,100827.84
2024-02-02T20:22:39.628Z,100802.75
2024-02-02T20:27:44.158Z,100824.03
2024-02-02T20:32:47.171Z,100821.56
2024-02-02T20:37:50.627Z,100840.28
2024-02-02T20:42:55.474Z,100817.66
2024-02-02T20:47:58.432Z,100825.31
2024-02-02T20:53:01.417Z,100821.16
2024-02-02T20:58:05.697Z,100835.78
2024-02-02T21:03:11.140Z,100828.63
2024-02-02T21:08:14.174Z,100831.97
2024-02-02T21:13:19.363Z,100826.25
2024-02-02T21:18:24.428Z,100823.19
2024-02-02T21:23:27.419Z,100816.25
2024-02-02T21:28:31.766Z,100819.50
2024-02-02T21:33:34.888Z,100820.22
2024-02-02T21:38:37.972Z,100823.66
2024-02-02T21:43:42.178Z,100828.66
2024-02-02T21:48:45.198Z,100821.16
2024-02-02T21:53:48.410Z,100809.13
2024-02-02T21:58:52.673Z,100808.19
2024-02-02T22:03:55.805Z,100810.22
2024-02-02T22:08:59.022Z,100820.69
2024-02-02T22:14:03.951Z,100808.56
2024-02-02T22:19:07.640Z,100786.09
2024-02-02T22:24:10.686Z,100813.66
2024-02-02T22:29:15.572Z,100800.09
2024-02-02T22:34:18.479Z,100791.34
2024-02-02T22:39:23.266Z,100774.41
2024-02-02T22:44:27.615Z,100760.38
2024-02-02T22:49:32.347Z,100778.59
2024-02-02T22:54:35.282Z,100786.63
2024-02-02T22:59:42.019Z,100787.34
2024-02-02T23:04:45.208Z,100794.84
2024-02-02T23:09:48.397Z,100763.56
2024-02-02T23:14:53.089Z,100773.41
2024-02-02T23:19:56.107Z,100784.25
2024-02-02T23:24:59.043Z,100781.75
2024-02-02T23:30:03.736Z,100801.38
2024-02-02T23:35:07.594Z,100791.72
2024-02-02T23:40:11.927Z,100787.06
2024-02-02T23:45:16.430Z,100776.25
2024-02-02T23:50:19.502Z,100767.41
2024-02-02T23:55:22.451Z,100763.00
